Time,TemperatureF,DewpointF,PressureIn,WindDirection,WindDirectionDegrees,WindSpeedMPH,WindSpeedGustMPH,Humidity,HourlyPrecipIn,Conditions,Clouds,dailyrainin,SoftwareType,DateUTC
2013-10-14 00:04:00,40.5,40.5,30.42,NNE,12,0.0,0.0,100,0.00,,CLR,0.00,VWS V14.00,2013-10-14 04:04:00,
2013-10-14 00:09:00,40.5,40.5,30.41,NNE,12,0.0,0.0,100,0.00,,CLR,0.00,VWS V14.00,2013-10-14 04:09:00,
2013-10-14 00:14:00,40.7,40.7,30.41,NNE,12,0.0,0.0,100,0.00,,CLR,0.00,VWS V14.00,2013-10-14 04:14:00,
2013-10-14 00:19:00,40.7,40.7,30.41,NNE,12,0.0,0.0,100,0.00,,CLR,0.00,VWS V14.00,2013-10-14 04:19:00,
2013-10-14 00:24:00,40.7,40.7,30.41,NNE,12,0.0,0.0,100,0.00,,CLR,0.00,VWS V14.00,2013-10-14 04:24:00,
2013-10-14 00:29:00,40.5,40.5,30.41,NNE,12,0.0,0.0,100,0.00,,CLR,0.00,VWS V14.00,2013-10-14 04:29:00,
2013-10-14 00:34:00,40.4,40.4,30.41,NNE,12,0.0,0.0,100,0.00,,CLR,0.00,VWS V14.00,2013-10-14 04:34:00,
2013-10-14 00:39:00,40.3,40.3,30.41,NNE,12,0.0,0.0,100,0.00,,CLR,0.00,VWS V14.00,2013-10-14 04:39:00,
2013-10-14 00:44:00,40.1,40.1,30.41,NNE,12,0.0,0.0,100,0.00,,CLR,0.00,VWS V14.00,2013-10-14 04:44:00,
2013-10-14 00:49:00,39.8,39.8,30.41,NNE,12,0.0,0.0,100,0.00,,CLR,0.00,VWS V14.00,2013-10-14 04:49:00,
2013-10-14 00:54:00,39.7,39.7,30.41,NNE,12,0.0,0.0,100,0.00,,CLR,0.00,VWS V14.00,2013-10-14 04:54:00,
2013-10-14 00:59:00,39.4,39.4,30.41,NNE,12,0.0,0.0,100,0.00,,CLR,0.00,VWS V14.00,2013-10-14 04:59:00,
2013-10-14 01:04:00,39.1,39.1,30.41,NNE,12,0.0,0.0,100,0.00,,,0.00,VWS V14.00,2013-10-14 05:04:00,
2013-10-14 01:09:00,38.9,38.9,30.41,NNE,12,0.0,0.0,100,0.00,,,0.00,VWS V14.00,2013-10-14 05:09:00,
2013-10-14 01:14:00,38.8,38.8,30.41,NNE,12,0.0,0.0,100,0.00,,,0.00,VWS V14.00,2013-10-14 05:14:00,
2013-10-14 01:19:00,38.7,38.7,30.41,NNE,12,0.0,0.0,100,0.00,,,0.00,VWS V14.00,2013-10-14 05:19:00,
2013-10-14 01:24:00,38.7,38.7,30.41,NNE,12,0.0,0.0,100,0.00,,,0.00,VWS V14.00,2013-10-14 05:24:00,
2013-10-14 01:29:00,38.6,38.6,30.41,NNE,12,0.0,0.0,100,0.00,,,0.00,VWS V14.00,2013-10-14 05:29:00,
2013-10-14 01:34:00,38.5,38.5,30.41,NNE,12,0.0,0.0,100,0.00,,,0.00,VWS V14.00,2013-10-14 05:34:00,
2013-10-14 01:39:00,38.5,38.5,30.41,NNE,12,0.0,0.0,100,0.00,,,0.00,VWS V14.00,2013-10-14 05:39:00,
2013-10-14 01:44:00,38.7,38.7,30.40,NNE,12,0.0,0.0,100,0.00,,,0.00,VWS V14.00,2013-10-14 05:44:00,
2013-10-14 01:49:00,38.7,38.7,30.40,NNE,12,0.0,0.0,100,0.00,,,0.00,VWS V14.00,2013-10-14 05:49:00,
2013-10-14 01:54:00,38.8,38.8,30.40,NNE,12,0.0,0.0,100,0.00,,,0.00,VWS V14.00,2013-10-14 05:54:00,
2013-10-14 01:59:00,39.0,39.0,30.40,NNE,12,0.0,0.0,100,0.00,,,0.00,VWS V14.00,2013-10-14 05:59:00,
2013-10-14 02:04:00,38.8,38.8,30.39,NNE,12,0.0,0.0,100,0.00,,,0.00,VWS V14.00,2013-10-14 06:04:00,
2013-10-14 02:09:00,39.0,39.0,30.39,NNE,12,0.0,0.0,100,0.00,,,0.00,VWS V14.00,2013-10-14 06:09:00,
2013-10-14 02:14:00,38.9,38.9,30.39,NNE,12,0.0,0.0,100,0.00,,,0.00,VWS V14.00,2013-10-14 06:14:00,
2013-10-14 02:19:00,39.0,39.0,30.39,NNE,12,0.0,0.0,100,0.00,,,0.00,VWS V14.00,2013-10-14 06:19:00,
2013-10-14 02:24:00,39.1,39.1,30.39,NNE,12,0.0,0.0,100,0.00,,,0.00,VWS V14.00,2013-10-14 06:24:00,
2013-10-14 02:29:00,39.1,39.1,30.39,NNE,12,0.0,0.0,100,0.00,,,0.00,VWS V14.00,2013-10-14 06:29:00,
2013-10-14 02:34:00,39.1,39.1,30.39,NNE,12,0.0,0.0,100,0.00,,,0.00,VWS V14.00,2013-10-14 06:34:00,
2013-10-14 02:39:00,39.1,39.1,30.39,NNE,12,0.0,0.0,100,0.00,,,0.00,VWS V14.00,2013-10-14 06:39:00,
2013-10-14 02:44:00,39.2,39.2,30.38,NNE,12,0.0,0.0,100,0.00,,,0.00,VWS V14.00,2013-10-14 06:44:00,
2013-10-14 02:49:00,39.3,39.3,30.38,NNE,12,0.0,0.0,100,0.00,,,0.00,VWS V14.00,2013-10-14 06:49:00,
2013-10-14 02:54:00,39.3,39.3,30.38,NNE,12,0.0,0.0,100,0.00,,,0.00,VWS V14.00,2013-10-14 06:54:00,
2013-10-14 02:59:00,39.1,39.1,30.38,NNE,12,0.0,0.0,100,0.00,,,0.00,VWS V14.00,2013-10-14 06:59:00,
2013-10-14 03:04:00,38.9,38.9,30.38,NNE,12,0.0,0.0,100,0.00,,FEW002,0.00,VWS V14.00,2013-10-14 07:04:00,
2013-10-14 03:09:00,38.8,38.8,30.38,NNE,12,0.0,0.0,100,0.00,,FEW002,0.00,VWS V14.00,2013-10-14 07:09:00,
2013-10-14 03:14:00,38.7,38.7,30.38,NNE,12,0.0,0.0,100,0.00,,FEW002,0.00,VWS V14.00,2013-10-14 07:14:00,
2013-10-14 03:19:00,38.5,38.5,30.38,NNE,12,0.0,0.0,100,0.00,,FEW002,0.00,VWS V14.00,2013-10-14 07:19:00,
2013-10-14 03:24:00,38.4,38.4,30.38,NNE,12,0.0,0.0,100,0.00,,FEW002,0.00,VWS V14.00,2013-10-14 07:24:00,
2013-10-14 03:29:00,38.4,38.4,30.38,NNE,12,0.0,0.0,100,0.00,,FEW002,0.00,VWS V14.00,2013-10-14 07:29:00,
2013-10-14 03:34:00,38.2,38.2,30.38,NNE,12,0.0,0.0,100,0.00,,FEW002,0.00,VWS V14.00,2013-10-14 07:34:00,
2013-10-14 03:39:00,38.3,38.3,30.38,NNE,12,0.0,0.0,100,0.00,,FEW002,0.00,VWS V14.00,2013-10-14 07:39:00,
2013-10-14 03:44:00,38.1,38.1,30.38,NNE,12,0.0,0.0,100,0.00,,FEW002,0.00,VWS V14.00,2013-10-14 07:44:00,
2013-10-14 03:49:00,38.1,38.1,30.38,NNE,12,0.0,0.0,100,0.00,,FEW002,0.00,VWS V14.00,2013-10-14 07:49:00,
2013-10-14 03:54:00,38.0,38.0,30.38,NNE,12,0.0,0.0,100,0.00,,FEW002,0.00,VWS V14.00,2013-10-14 07:54:00,
2013-10-14 03:59:00,38.0,38.0,30.38,NNE,12,0.0,0.0,100,0.00,,FEW002,0.00,VWS V14.00,2013-10-14 07:59:00,
2013-10-14 04:04:00,37.8,37.8,30.38,NNE,12,0.0,0.0,100,0.00,,,0.00,VWS V14.00,2013-10-14 08:04:00,
2013-10-14 04:09:00,37.7,37.7,30.38,NNE,12,0.0,0.0,100,0.00,,,0.00,VWS V14.00,2013-10-14 08:09:00,
2013-10-14 04:14:00,37.5,37.5,30.38,NNE,12,0.0,0.0,100,0.00,,,0.00,VWS V14.00,2013-10-14 08:14:00,
2013-10-14 04:19:00,37.4,37.4,30.38,NNE,12,0.0,0.0,100,0.00,,,0.00,VWS V14.00,2013-10-14 08:19:00,
2013-10-14 04:24:00,37.2,37.2,30.38,NNE,12,0.0,0.0,100,0.00,,,0.00,VWS V14.00,2013-10-14 08:24:00,
2013-10-14 04:29:00,37.2,37.2,30.38,NNE,12,0.0,0.0,100,0.00,,,0.00,VWS V14.00,2013-10-14 08:29:00,
2013-10-14 04:34:00,37.2,37.2,30.38,NNE,12,0.0,0.0,100,0.00,,,0.00,VWS V14.00,2013-10-14 08:34:00,
2013-10-14 04:39:00,37.1,37.1,30.38,NNE,12,0.0,0.0,100,0.00,,,0.00,VWS V14.00,2013-10-14 08:39:00,
2013-10-14 04:44:00,37.1,37.1,30.38,NNE,12,0.0,0.0,100,0.00,,,0.00,VWS V14.00,2013-10-14 08:44:00,
2013-10-14 04:49:00,37.0,37.0,30.38,NNE,12,0.0,0.0,100,0.00,,,0.00,VWS V14.00,2013-10-14 08:49:00,
2013-10-14 04:54:00,37.0,37.0,30.38,NNE,12,0.0,0.0,100,0.00,,,0.00,VWS V14.00,2013-10-14 08:54:00,
2013-10-14 04:59:00,37.0,37.0,30.37,NNE,12,0.0,0.0,100,0.00,,,0.00,VWS V14.00,2013-10-14 08:59:00,
2013-10-14 05:04:00,37.1,37.1,30.37,NNE,12,0.0,0.0,100,0.00,,,0.00,VWS V14.00,2013-10-14 09:04:00,
2013-10-14 05:09:00,37.1,37.1,30.38,NNE,12,0.0,0.0,100,0.00,,,0.00,VWS V14.00,2013-10-14 09:09:00,
2013-10-14 05:14:00,37.1,37.1,30.38,NNE,12,0.0,0.0,100,0.00,,,0.00,VWS V14.00,2013-10-14 09:14:00,
2013-10-14 05:19:00,37.1,37.1,30.38,NNE,12,0.0,0.0,100,0.00,,,0.00,VWS V14.00,2013-10-14 09:19:00,
2013-10-14 05:24:00,37.1,37.1,30.38,NNE,12,0.0,0.0,100,0.00,,,0.00,VWS V14.00,2013-10-14 09:24:00,
2013-10-14 05:29:00,37.2,37.2,30.38,NNE,12,0.0,0.0,100,0.00,,,0.00,VWS V14.00,2013-10-14 09:29:00,
2013-10-14 05:34:00,37.3,37.3,30.38,NNE,12,0.0,0.0,100,0.00,,,0.00,VWS V14.00,2013-10-14 09:34:00,
2013-10-14 05:39:00,37.2,37.2,30.38,NNE,12,0.0,0.0,100,0.00,,,0.00,VWS V14.00,2013-10-14 09:39:00,
2013-10-14 05:44:00,37.4,37.4,30.38,NNE,12,0.0,0.0,100,0.00,,,0.00,VWS V14.00,2013-10-14 09:44:00,
2013-10-14 05:49:00,37.3,37.3,30.38,NNE,12,0.0,0.0,100,0.00,,,0.00,VWS V14.00,2013-10-14 09:49:00,
2013-10-14 05:54:00,37.1,37.1,30.38,NNE,12,0.0,0.0,100,0.00,,,0.00,VWS V14.00,2013-10-14 09:54:00,
2013-10-14 05:59:00,36.8,36.8,30.38,NNE,12,0.0,0.0,100,0.00,,,0.00,VWS V14.00,2013-10-14 09:59:00,
2013-10-14 06:04:00,36.7,36.7,30.38,NNE,12,0.0,0.0,100,0.00,,OVC002,0.00,VWS V14.00,2013-10-14 10:04:00,
2013-10-14 06:09:00,36.7,36.7,30.38,NNE,12,0.0,0.0,100,0.00,,OVC002,0.00,VWS V14.00,2013-10-14 10:09:00,
2013-10-14 06:14:00,37.0,37.0,30.38,NNE,12,0.0,0.0,100,0.00,,OVC002,0.00,VWS V14.00,2013-10-14 10:14:00,
2013-10-14 06:19:00,37.3,37.3,30.38,NNE,12,0.0,0.0,100,0.00,,OVC002,0.00,VWS V14.00,2013-10-14 10:19:00,
2013-10-14 06:24:00,37.5,37.5,30.38,NNE,12,0.0,0.0,100,0.00,,OVC002,0.00,VWS V14.00,2013-10-14 10:24:00,
2013-10-14 06:29:00,37.8,37.8,30.37,NNE,12,0.0,0.0,100,0.00,,OVC002,0.00,VWS V14.00,2013-10-14 10:29:00,
2013-10-14 06:34:00,37.8,37.8,30.37,NNE,12,0.0,0.0,100,0.00,,OVC002,0.00,VWS V14.00,2013-10-14 10:34:00,
2013-10-14 06:39:00,38.0,38.0,30.37,NNE,12,0.0,0.0,100,0.00,,OVC002,0.00,VWS V14.00,2013-10-14 10:39:00,
2013-10-14 06:44:00,38.2,38.2,30.37,NNE,12,0.0,0.0,100,0.00,,OVC002,0.00,VWS V14.00,2013-10-14 10:44:00,
2013-10-14 06:49:00,38.3,38.3,30.37,NNE,12,0.0,0.0,100,0.00,,OVC002,0.00,VWS V14.00,2013-10-14 10:49:00,
2013-10-14 06:54:00,38.3,38.3,30.37,NNE,12,0.0,0.0,100,0.00,,OVC002,0.00,VWS V14.00,2013-10-14 10:54:00,
2013-10-14 06:59:00,38.4,38.4,30.37,NNE,12,0.0,0.0,100,0.00,,OVC002,0.00,VWS V14.00,2013-10-14 10:59:00,
2013-10-14 07:04:00,38.4,38.4,30.37,NNE,12,0.0,0.0,100,0.00,,,0.00,VWS V14.00,2013-10-14 11:04:00,
2013-10-14 07:09:00,38.5,38.5,30.37,NNE,12,0.0,0.0,100,0.00,,,0.00,VWS V14.00,2013-10-14 11:09:00,
2013-10-14 07:14:00,38.5,38.5,30.37,NNE,12,0.0,0.0,100,0.00,,,0.00,VWS V14.00,2013-10-14 11:14:00,
2013-10-14 07:19:00,38.5,38.5,30.37,NNE,12,0.0,0.0,100,0.00,,,0.00,VWS V14.00,2013-10-14 11:19:00,
2013-10-14 07:24:00,38.1,38.1,30.37,NNE,12,0.0,0.0,100,0.00,,,0.00,VWS V14.00,2013-10-14 11:24:00,
2013-10-14 07:29:00,37.3,37.3,30.38,NNE,12,0.0,0.0,100,0.00,,,0.00,VWS V14.00,2013-10-14 11:29:00,
2013-10-14 07:34:00,36.8,36.8,30.38,NNE,12,0.0,0.0,100,0.00,,,0.00,VWS V14.00,2013-10-14 11:34:00,
2013-10-14 07:39:00,36.4,36.4,30.38,NNE,12,0.0,0.0,100,0.00,,,0.00,VWS V14.00,2013-10-14 11:39:00,
2013-10-14 07:44:00,36.3,36.3,30.38,NNE,12,0.0,0.0,100,0.00,,,0.00,VWS V14.00,2013-10-14 11:44:00,
2013-10-14 07:49:00,36.1,36.1,30.38,NNE,12,0.0,0.0,100,0.00,,,0.00,VWS V14.00,2013-10-14 11:49:00,
2013-10-14 07:54:00,36.0,36.0,30.39,NNE,12,0.0,0.0,100,0.00,,,0.00,VWS V14.00,2013-10-14 11:54:00,
2013-10-14 07:59:00,35.9,35.9,30.39,NNE,12,0.0,0.0,100,0.00,,,0.00,VWS V14.00,2013-10-14 11:59:00,
2013-10-14 08:04:00,36.0,36.0,30.39,NNE,12,0.0,0.0,100,0.00,,,0.00,VWS V14.00,2013-10-14 12:04:00,
2013-10-14 08:09:00,36.1,36.1,30.39,NNE,12,0.0,0.0,100,0.01,,,0.01,VWS V14.00,2013-10-14 12:09:00,
2013-10-14 08:14:00,36.2,36.2,30.39,NNE,12,0.0,0.0,100,0.01,,,0.01,VWS V14.00,2013-10-14 12:14:00,
2013-10-14 08:19:00,36.5,36.5,30.39,NNE,12,0.0,0.0,100,0.01,,,0.01,VWS V14.00,2013-10-14 12:19:00,
2013-10-14 08:24:00,37.0,37.0,30.39,NNE,12,0.0,0.0,100,0.01,,,0.01,VWS V14.00,2013-10-14 12:24:00,
2013-10-14 08:29:00,37.5,37.5,30.39,NNE,12,0.0,0.0,100,0.01,,,0.01,VWS V14.00,2013-10-14 12:29:00,
2013-10-14 08:34:00,38.4,38.4,30.39,NNE,12,0.0,0.0,100,0.01,,,0.01,VWS V14.00,2013-10-14 12:34:00,
2013-10-14 08:39:00,38.8,38.8,30.39,NNE,12,0.0,0.0,100,0.01,,,0.01,VWS V14.00,2013-10-14 12:39:00,
2013-10-14 08:44:00,39.7,39.7,30.39,NNE,12,0.0,0.0,100,0.01,,,0.01,VWS V14.00,2013-10-14 12:44:00,
2013-10-14 08:49:00,40.3,40.3,30.38,NNE,12,0.0,0.0,100,0.01,,,0.01,VWS V14.00,2013-10-14 12:49:00,
2013-10-14 08:54:00,41.0,41.0,30.38,NNE,12,0.0,0.0,100,0.00,,,0.01,VWS V14.00,2013-10-14 12:54:00,
2013-10-14 08:59:00,42.0,42.0,30.39,NNE,12,0.0,0.0,100,0.00,,,0.01,VWS V14.00,2013-10-14 12:59:00,
2013-10-14 09:04:00,42.7,42.7,30.39,NNE,12,0.0,0.0,100,0.00,,,0.01,VWS V14.00,2013-10-14 13:04:00,
2013-10-14 09:09:00,43.4,43.4,30.39,NNE,12,0.0,0.0,100,0.00,,,0.01,VWS V14.00,2013-10-14 13:09:00,
2013-10-14 09:14:00,44.3,44.3,30.39,NNE,12,0.0,0.0,100,0.00,,,0.01,VWS V14.00,2013-10-14 13:14:00,
2013-10-14 09:19:00,44.7,44.7,30.39,NNE,12,0.0,0.0,100,0.00,,,0.01,VWS V14.00,2013-10-14 13:19:00,
2013-10-14 09:24:00,45.3,45.3,30.38,NNE,12,0.0,0.0,100,0.00,,,0.01,VWS V14.00,2013-10-14 13:24:00,
2013-10-14 09:29:00,45.9,45.9,30.38,NNE,12,0.0,0.0,100,0.00,,,0.01,VWS V14.00,2013-10-14 13:29:00,
2013-10-14 09:34:00,46.5,46.5,30.39,NNE,12,0.0,0.0,100,0.00,,,0.01,VWS V14.00,2013-10-14 13:34:00,
2013-10-14 09:39:00,46.8,46.8,30.38,NNE,12,0.0,0.0,100,0.00,,,0.01,VWS V14.00,2013-10-14 13:39:00,
2013-10-14 09:44:00,46.8,46.8,30.39,North,11,0.0,2.0,100,0.00,,,0.01,VWS V14.00,2013-10-14 13:44:00,
2013-10-14 09:49:00,47.0,47.0,30.38,North,11,0.0,2.0,100,0.00,,,0.01,VWS V14.00,2013-10-14 13:49:00,
2013-10-14 09:54:00,47.3,47.3,30.38,North,11,0.0,2.0,100,0.00,,,0.01,VWS V14.00,2013-10-14 13:54:00,
2013-10-14 09:59:00,47.6,47.6,30.38,North,11,0.0,2.0,100,0.00,,,0.01,VWS V14.00,2013-10-14 13:59:00,
2013-10-14 10:04:00,47.8,47.8,30.38,North,9,0.0,3.0,100,0.00,,CLR,0.01,VWS V14.00,2013-10-14 14:04:00,
2013-10-14 10:09:00,48.4,48.4,30.38,North,9,0.0,3.0,100,0.00,,CLR,0.01,VWS V14.00,2013-10-14 14:09:00,
2013-10-14 10:14:00,48.5,48.5,30.38,North,8,0.0,3.0,100,0.00,,CLR,0.01,VWS V14.00,2013-10-14 14:14:00,
2013-10-14 10:19:00,49.0,49.0,30.38,North,4,0.0,3.0,100,0.00,,CLR,0.01,VWS V14.00,2013-10-14 14:19:00,
2013-10-14 10:24:00,49.4,49.4,30.38,North,4,0.0,3.0,100,0.00,,CLR,0.01,VWS V14.00,2013-10-14 14:24:00,
2013-10-14 10:29:00,49.8,49.8,30.38,North,3,0.0,4.0,100,0.00,,CLR,0.01,VWS V14.00,2013-10-14 14:29:00,
2013-10-14 10:34:00,50.3,50.3,30.37,North,3,1.0,3.0,100,0.00,,CLR,0.01,VWS V14.00,2013-10-14 14:34:00,
2013-10-14 10:39:00,50.9,50.9,30.37,WSW,252,0.0,3.0,100,0.00,,CLR,0.01,VWS V14.00,2013-10-14 14:39:00,
2013-10-14 10:44:00,51.6,51.6,30.37,WSW,252,0.0,3.0,100,0.00,,CLR,0.01,VWS V14.00,2013-10-14 14:44:00,
2013-10-14 10:49:00,52.2,52.2,30.37,WSW,254,0.0,3.0,100,0.00,,CLR,0.01,VWS V14.00,2013-10-14 14:49:00,
2013-10-14 10:54:00,52.8,52.8,30.36,WSW,254,0.0,3.0,100,0.00,,CLR,0.01,VWS V14.00,2013-10-14 14:54:00,
2013-10-14 10:59:00,53.4,53.4,30.36,WSW,255,0.0,3.0,100,0.00,,CLR,0.01,VWS V14.00,2013-10-14 14:59:00,
2013-10-14 11:04:00,53.7,53.2,30.36,WSW,256,1.0,2.0,98,0.00,,CLR,0.01,VWS V14.00,2013-10-14 15:04:00,
2013-10-14 11:09:00,54.5,53.4,30.36,WSW,256,1.0,2.0,96,0.00,,CLR,0.01,VWS V14.00,2013-10-14 15:09:00,
2013-10-14 11:14:00,55.3,52.4,30.36,WSW,256,0.0,3.0,90,0.00,,CLR,0.01,VWS V14.00,2013-10-14 15:14:00,
2013-10-14 11:19:00,55.9,52.1,30.35,WSW,256,0.0,3.0,87,0.00,,CLR,0.01,VWS V14.00,2013-10-14 15:19:00,
2013-10-14 11:24:00,56.2,51.4,30.35,NNW,327,1.0,5.0,84,0.00,,CLR,0.01,VWS V14.00,2013-10-14 15:24:00,
2013-10-14 11:29:00,56.5,51.1,30.35,NNW,327,0.0,5.0,82,0.00,,CLR,0.01,VWS V14.00,2013-10-14 15:29:00,
2013-10-14 11:34:00,57.0,50.2,30.35,NNW,327,0.0,1.0,78,0.00,,CLR,0.01,VWS V14.00,2013-10-14 15:34:00,
2013-10-14 11:39:00,57.3,49.8,30.35,SW,222,0.0,4.0,76,0.00,,CLR,0.01,VWS V14.00,2013-10-14 15:39:00,
2013-10-14 11:44:00,57.3,50.2,30.35,SW,222,0.0,4.0,77,0.00,,CLR,0.01,VWS V14.00,2013-10-14 15:44:00,
2013-10-14 11:49:00,57.3,49.8,30.35,WSW,255,0.0,4.0,76,0.00,,CLR,0.01,VWS V14.00,2013-10-14 15:49:00,
2013-10-14 11:54:00,56.7,48.9,30.35,SW,234,0.0,4.0,75,0.00,,CLR,0.01,VWS V14.00,2013-10-14 15:54:00,
2013-10-14 11:59:00,56.9,49.4,30.35,SW,230,1.0,4.0,76,0.00,,CLR,0.01,VWS V14.00,2013-10-14 15:59:00,
2013-10-14 12:04:00,57.2,48.6,30.35,WNW,291,0.0,6.0,73,0.00,,SCT250,0.01,VWS V14.00,2013-10-14 16:04:00,
2013-10-14 12:09:00,57.5,49.3,30.34,WNW,292,0.0,6.0,74,0.00,,SCT250,0.01,VWS V14.00,2013-10-14 16:09:00,
2013-10-14 12:14:00,57.8,48.8,30.34,WNW,292,1.0,6.0,72,0.00,,SCT250,0.01,VWS V14.00,2013-10-14 16:14:00,
2013-10-14 12:19:00,58.1,49.1,30.33,West,281,0.0,6.0,72,0.00,,SCT250,0.01,VWS V14.00,2013-10-14 16:19:00,
2013-10-14 12:24:00,59.0,49.6,30.33,West,281,0.0,6.0,71,0.00,,SCT250,0.01,VWS V14.00,2013-10-14 16:24:00,
2013-10-14 12:29:00,59.2,49.4,30.33,West,277,1.0,6.0,70,0.00,,SCT250,0.01,VWS V14.00,2013-10-14 16:29:00,
2013-10-14 12:34:00,58.9,49.2,30.32,West,267,1.0,3.0,70,0.00,,SCT250,0.01,VWS V14.00,2013-10-14 16:34:00,
2013-10-14 12:39:00,59.0,49.2,30.32,West,274,0.0,3.0,70,0.00,,SCT250,0.01,VWS V14.00,2013-10-14 16:39:00,
2013-10-14 12:44:00,59.8,49.6,30.31,West,274,0.0,3.0,69,0.00,,SCT250,0.01,VWS V14.00,2013-10-14 16:44:00,
2013-10-14 12:49:00,60.4,49.4,30.31,NE,38,0.0,5.0,67,0.00,,SCT250,0.01,VWS V14.00,2013-10-14 16:49:00,
2013-10-14 12:54:00,60.9,49.5,30.31,NE,38,0.0,5.0,66,0.00,,SCT250,0.01,VWS V14.00,2013-10-14 16:54:00,
2013-10-14 12:59:00,60.9,48.2,30.31,SSW,203,3.0,5.0,63,0.00,,SCT250,0.01,VWS V14.00,2013-10-14 16:59:00,
2013-10-14 13:04:00,60.6,48.4,30.31,SW,224,3.0,3.0,64,0.00,,SCT250,0.01,VWS V14.00,2013-10-14 17:04:00,
2013-10-14 13:09:00,60.7,48.5,30.30,NNW,329,2.0,5.0,64,0.00,,SCT250,0.01,VWS V14.00,2013-10-14 17:09:00,
2013-10-14 13:14:00,60.7,49.3,30.30,NNW,329,0.0,5.0,66,0.00,,SCT250,0.01,VWS V14.00,2013-10-14 17:14:00,
2013-10-14 13:19:00,61.5,49.6,30.30,NNW,329,0.0,5.0,65,0.00,,SCT250,0.01,VWS V14.00,2013-10-14 17:19:00,
2013-10-14 13:24:00,62.5,50.2,30.30,NNW,329,0.0,5.0,64,0.00,,SCT250,0.01,VWS V14.00,2013-10-14 17:24:00,
2013-10-14 13:29:00,62.8,49.6,30.30,NW,315,1.0,5.0,62,0.00,,SCT250,0.01,VWS V14.00,2013-10-14 17:29:00,
2013-10-14 13:34:00,62.5,48.9,30.30,NW,309,2.0,4.0,61,0.00,,SCT250,0.01,VWS V14.00,2013-10-14 17:34:00,
2013-10-14 13:39:00,62.6,49.0,30.30,NW,309,1.0,4.0,61,0.00,,SCT250,0.01,VWS V14.00,2013-10-14 17:39:00,
2013-10-14 13:44:00,62.8,48.3,30.30,NW,311,1.0,4.0,59,0.00,,SCT250,0.01,VWS V14.00,2013-10-14 17:44:00,
2013-10-14 13:49:00,62.4,48.3,30.30,NW,311,0.0,4.0,60,0.00,,SCT250,0.01,VWS V14.00,2013-10-14 17:49:00,
2013-10-14 13:54:00,62.8,48.7,30.29,NW,311,0.0,4.0,60,0.00,,SCT250,0.01,VWS V14.00,2013-10-14 17:54:00,
2013-10-14 13:59:00,63.2,49.1,30.29,NW,311,0.0,4.0,60,0.00,,SCT250,0.01,VWS V14.00,2013-10-14 17:59:00,
2013-10-14 14:04:00,63.2,48.2,30.29,NW,311,0.0,3.0,58,0.00,,CLR,0.01,VWS V14.00,2013-10-14 18:04:00,
2013-10-14 14:09:00,62.9,48.8,30.29,NW,310,1.0,3.0,60,0.00,,CLR,0.01,VWS V14.00,2013-10-14 18:09:00,
2013-10-14 14:14:00,62.8,48.7,30.29,NW,310,0.0,3.0,60,0.00,,CLR,0.01,VWS V14.00,2013-10-14 18:14:00,
2013-10-14 14:19:00,63.1,49.0,30.29,NW,310,1.0,3.0,60,0.00,,CLR,0.01,VWS V14.00,2013-10-14 18:19:00,
2013-10-14 14:24:00,63.1,48.1,30.29,NW,310,1.0,3.0,58,0.00,,CLR,0.01,VWS V14.00,2013-10-14 18:24:00,
2013-10-14 14:29:00,63.2,48.7,30.28,SSW,205,0.0,5.0,59,0.00,,CLR,0.01,VWS V14.00,2013-10-14 18:29:00,
2013-10-14 14:34:00,62.9,47.9,30.28,SSW,200,2.0,3.0,58,0.00,,CLR,0.01,VWS V14.00,2013-10-14 18:34:00,
2013-10-14 14:39:00,63.1,49.0,30.28,SSW,199,0.0,3.0,60,0.00,,CLR,0.01,VWS V14.00,2013-10-14 18:39:00,
2013-10-14 14:44:00,63.4,48.4,30.28,SSW,199,0.0,3.0,58,0.00,,CLR,0.01,VWS V14.00,2013-10-14 18:44:00,
2013-10-14 14:49:00,63.5,48.5,30.28,SSW,199,0.0,3.0,58,0.00,,CLR,0.01,VWS V14.00,2013-10-14 18:49:00,
2013-10-14 14:54:00,63.5,48.0,30.28,SSW,199,2.0,3.0,57,0.00,,CLR,0.01,VWS V14.00,2013-10-14 18:54:00,
2013-10-14 14:59:00,63.1,47.6,30.28,SSW,199,0.0,3.0,57,0.00,,CLR,0.01,VWS V14.00,2013-10-14 18:59:00,
2013-10-14 15:04:00,63.4,47.9,30.28,SSW,199,0.0,1.0,57,0.00,,CLR,0.01,VWS V14.00,2013-10-14 19:04:00,
2013-10-14 15:09:00,63.4,47.5,30.28,SSW,195,0.0,3.0,56,0.00,,CLR,0.01,VWS V14.00,2013-10-14 19:09:00,
2013-10-14 15:14:00,63.7,47.7,30.27,SSW,195,0.0,3.0,56,0.00,,CLR,0.01,VWS V14.00,2013-10-14 19:14:00,
2013-10-14 15:19:00,64.1,48.1,30.27,SSW,195,0.0,3.0,56,0.00,,CLR,0.01,VWS V14.00,2013-10-14 19:19:00,
2013-10-14 15:24:00,63.7,47.7,30.27,SW,230,0.0,5.0,56,0.00,,CLR,0.01,VWS V14.00,2013-10-14 19:24:00,
2013-10-14 15:29:00,63.4,47.9,30.27,SW,231,0.0,5.0,57,0.00,,CLR,0.01,VWS V14.00,2013-10-14 19:29:00,
2013-10-14 15:34:00,63.2,47.3,30.27,SW,231,0.0,1.0,56,0.00,,CLR,0.01,VWS V14.00,2013-10-14 19:34:00,
2013-10-14 15:39:00,63.2,47.7,30.27,SW,231,0.0,2.0,57,0.00,,CLR,0.01,VWS V14.00,2013-10-14 19:39:00,
2013-10-14 15:44:00,62.9,47.0,30.27,SW,220,0.0,4.0,56,0.00,,CLR,0.01,VWS V14.00,2013-10-14 19:44:00,
2013-10-14 15:49:00,62.3,46.9,30.27,SW,220,0.0,4.0,57,0.00,,CLR,0.01,VWS V14.00,2013-10-14 19:49:00,
2013-10-14 15:54:00,62.1,48.1,30.27,SW,220,0.0,4.0,60,0.00,,CLR,0.01,VWS V14.00,2013-10-14 19:54:00,
2013-10-14 15:59:00,62.1,47.6,30.26,SW,220,0.0,4.0,59,0.00,,CLR,0.01,VWS V14.00,2013-10-14 19:59:00,
2013-10-14 16:04:00,62.1,48.1,30.27,SW,220,0.0,0.0,60,0.00,,CLR,0.01,VWS V14.00,2013-10-14 20:04:00,
2013-10-14 16:09:00,62.0,47.1,30.27,SW,220,0.0,2.0,58,0.00,,CLR,0.01,VWS V14.00,2013-10-14 20:09:00,
2013-10-14 16:14:00,61.8,47.8,30.26,SW,220,0.0,2.0,60,0.00,,CLR,0.01,VWS V14.00,2013-10-14 20:14:00,
2013-10-14 16:19:00,61.4,47.0,30.26,SW,220,0.0,2.0,59,0.00,,CLR,0.01,VWS V14.00,2013-10-14 20:19:00,
2013-10-14 16:24:00,61.0,46.6,30.26,SW,220,0.0,3.0,59,0.00,,CLR,0.01,VWS V14.00,2013-10-14 20:24:00,
2013-10-14 16:29:00,60.6,46.7,30.27,SW,220,0.0,3.0,60,0.00,,CLR,0.01,VWS V14.00,2013-10-14 20:29:00,
2013-10-14 16:34:00,60.3,46.8,30.26,SW,220,0.0,1.0,61,0.00,,CLR,0.01,VWS V14.00,2013-10-14 20:34:00,
2013-10-14 16:39:00,60.1,47.0,30.26,SW,220,0.0,1.0,62,0.00,,CLR,0.01,VWS V14.00,2013-10-14 20:39:00,
2013-10-14 16:44:00,59.8,47.6,30.26,SW,220,0.0,1.0,64,0.00,,CLR,0.01,VWS V14.00,2013-10-14 20:44:00,
2013-10-14 16:49:00,59.6,48.2,30.26,SW,220,0.0,1.0,66,0.00,,CLR,0.01,VWS V14.00,2013-10-14 20:49:00,
2013-10-14 16:54:00,59.3,48.0,30.26,SW,220,0.0,1.0,66,0.00,,CLR,0.01,VWS V14.00,2013-10-14 20:54:00,
2013-10-14 16:59:00,59.2,48.3,30.26,SW,220,0.0,1.0,67,0.00,,CLR,0.01,VWS V14.00,2013-10-14 20:59:00,
2013-10-14 17:02:00,59.0,48.5,30.26,SW,220,0.0,0.0,68,0.00,,CLR,0.01,VWS V14.00,2013-10-14 21:02:00,
2013-10-14 17:07:00,58.7,48.6,30.26,SW,220,0.0,0.0,69,0.00,,CLR,0.01,VWS V14.00,2013-10-14 21:07:00,
2013-10-14 17:12:00,58.4,48.7,30.26,SW,220,0.0,0.0,70,0.00,,CLR,0.01,VWS V14.00,2013-10-14 21:12:00,
2013-10-14 17:17:00,58.0,47.9,30.27,SW,220,0.0,0.0,69,0.00,,CLR,0.01,VWS V14.00,2013-10-14 21:17:00,
2013-10-14 17:22:00,57.8,48.1,30.27,SW,220,0.0,0.0,70,0.00,,CLR,0.01,VWS V14.00,2013-10-14 21:22:00,
2013-10-14 17:27:00,57.5,47.8,30.27,SW,220,0.0,0.0,70,0.00,,CLR,0.01,VWS V14.00,2013-10-14 21:27:00,
2013-10-14 17:32:00,57.3,48.0,30.27,SW,220,0.0,0.0,71,0.00,,CLR,0.01,VWS V14.00,2013-10-14 21:32:00,
2013-10-14 17:37:00,56.9,48.3,30.27,SW,220,0.0,0.0,73,0.00,,CLR,0.01,VWS V14.00,2013-10-14 21:37:00,
2013-10-14 17:42:00,56.6,48.1,30.27,SW,220,0.0,0.0,73,0.00,,CLR,0.01,VWS V14.00,2013-10-14 21:42:00,
2013-10-14 17:47:00,56.2,48.0,30.27,SW,220,0.0,0.0,74,0.00,,CLR,0.01,VWS V14.00,2013-10-14 21:47:00,
2013-10-14 17:52:00,55.7,47.5,30.27,SW,220,0.0,0.0,74,0.00,,CLR,0.01,VWS V14.00,2013-10-14 21:52:00,
2013-10-14 17:57:00,55.4,47.6,30.27,SW,220,0.0,0.0,75,0.00,,CLR,0.01,VWS V14.00,2013-10-14 21:57:00,
2013-10-14 18:02:00,54.8,47.4,30.27,SW,220,0.0,0.0,76,0.00,,CLR,0.01,VWS V14.00,2013-10-14 22:02:00,
2013-10-14 18:07:00,54.4,47.0,30.27,SW,220,0.0,0.0,76,0.00,,CLR,0.01,VWS V14.00,2013-10-14 22:07:00,
2013-10-14 18:12:00,54.0,46.6,30.27,SW,220,0.0,0.0,76,0.00,,CLR,0.01,VWS V14.00,2013-10-14 22:12:00,
2013-10-14 18:17:00,53.5,46.5,30.27,SW,220,0.0,0.0,77,0.00,,CLR,0.01,VWS V14.00,2013-10-14 22:17:00,
2013-10-14 18:22:00,53.4,46.4,30.27,SW,219,0.0,2.0,77,0.00,,CLR,0.01,VWS V14.00,2013-10-14 22:22:00,
2013-10-14 18:27:00,53.4,46.4,30.27,SW,219,0.0,2.0,77,0.00,,CLR,0.01,VWS V14.00,2013-10-14 22:27:00,
2013-10-14 18:32:00,53.2,46.5,30.28,SW,219,0.0,1.0,78,0.00,,CLR,0.01,VWS V14.00,2013-10-14 22:32:00,
2013-10-14 18:37:00,52.9,46.2,30.28,SW,219,0.0,1.0,78,0.00,,CLR,0.01,VWS V14.00,2013-10-14 22:37:00,
2013-10-14 18:42:00,52.8,46.1,30.28,SW,219,0.0,1.0,78,0.00,,CLR,0.01,VWS V14.00,2013-10-14 22:42:00,
2013-10-14 18:47:00,52.7,46.0,30.28,SW,219,0.0,1.0,78,0.00,,CLR,0.01,VWS V14.00,2013-10-14 22:47:00,
2013-10-14 18:52:00,52.6,46.3,30.28,SW,219,0.0,1.0,79,0.00,,CLR,0.01,VWS V14.00,2013-10-14 22:52:00,
2013-10-14 18:57:00,52.5,46.2,30.28,SW,219,0.0,1.0,79,0.00,,CLR,0.01,VWS V14.00,2013-10-14 22:57:00,
2013-10-14 19:02:00,52.6,46.3,30.28,SW,219,0.0,0.0,79,0.00,,CLR,0.01,VWS V14.00,2013-10-14 23:02:00,
2013-10-14 19:07:00,52.6,46.3,30.28,SW,219,0.0,1.0,79,0.00,,CLR,0.01,VWS V14.00,2013-10-14 23:07:00,
2013-10-14 19:12:00,52.5,46.2,30.28,SW,219,0.0,2.0,79,0.00,,CLR,0.01,VWS V14.00,2013-10-14 23:12:00,
2013-10-14 19:17:00,52.6,46.0,30.28,SW,219,0.0,2.0,78,0.00,,CLR,0.01,VWS V14.00,2013-10-14 23:17:00,
2013-10-14 19:22:00,52.6,46.0,30.28,SW,219,0.0,2.0,78,0.00,,CLR,0.01,VWS V14.00,2013-10-14 23:22:00,
2013-10-14 19:26:00,52.6,46.0,30.28,SW,219,0.0,2.0,78,0.00,,CLR,0.01,VWS V14.00,2013-10-14 23:26:00,
2013-10-14 19:31:00,52.5,45.8,30.29,SW,219,1.0,2.0,78,0.00,,CLR,0.01,VWS V14.00,2013-10-14 23:31:00,
2013-10-14 19:37:00,52.5,45.8,30.28,SW,219,0.0,2.0,78,0.00,,CLR,0.01,VWS V14.00,2013-10-14 23:37:00,
2013-10-14 19:41:00,52.3,45.7,30.28,SW,219,2.0,2.0,78,0.00,,CLR,0.01,VWS V14.00,2013-10-14 23:41:00,
2013-10-14 19:46:00,52.3,45.7,30.29,SW,219,0.0,2.0,78,0.00,,CLR,0.01,VWS V14.00,2013-10-14 23:46:00,
2013-10-14 19:51:00,52.1,45.5,30.29,SW,219,0.0,2.0,78,0.00,,CLR,0.01,VWS V14.00,2013-10-14 23:51:00,
2013-10-14 19:57:00,51.9,45.3,30.29,SW,219,0.0,2.0,78,0.00,,CLR,0.01,VWS V14.00,2013-10-14 23:57:00,
2013-10-14 20:01:00,51.8,45.2,30.29,SW,219,0.0,0.0,78,0.00,,SCT045,0.01,VWS V14.00,2013-10-15 00:01:00,
2013-10-14 20:06:00,51.8,45.2,30.29,SW,219,0.0,3.0,78,0.00,,SCT045,0.01,VWS V14.00,2013-10-15 00:06:00,
2013-10-14 20:11:00,51.9,45.3,30.29,SW,219,0.0,3.0,78,0.00,,SCT045,0.01,VWS V14.00,2013-10-15 00:11:00,
2013-10-14 20:16:00,51.9,45.3,30.29,SW,219,0.0,3.0,78,0.00,,SCT045,0.01,VWS V14.00,2013-10-15 00:16:00,
2013-10-14 20:21:00,52.1,45.5,30.29,SW,219,0.0,3.0,78,0.00,,SCT045,0.01,VWS V14.00,2013-10-15 00:21:00,
2013-10-14 20:26:00,52.2,45.6,30.29,SW,219,0.0,3.0,78,0.00,,SCT045,0.01,VWS V14.00,2013-10-15 00:26:00,
2013-10-14 20:31:00,52.2,45.6,30.29,SW,219,0.0,0.0,78,0.00,,SCT045,0.01,VWS V14.00,2013-10-15 00:31:00,
2013-10-14 20:36:00,52.5,46.2,30.29,SW,219,0.0,1.0,79,0.00,,SCT045,0.01,VWS V14.00,2013-10-15 00:36:00,
2013-10-14 20:41:00,52.6,46.3,30.29,SW,219,1.0,2.0,79,0.00,,SCT045,0.01,VWS V14.00,2013-10-15 00:41:00,
2013-10-14 20:46:00,52.9,46.6,30.28,SW,219,0.0,2.0,79,0.00,,SCT045,0.01,VWS V14.00,2013-10-15 00:46:00,
2013-10-14 20:51:00,52.8,46.5,30.29,SW,219,0.0,2.0,79,0.00,,SCT045,0.01,VWS V14.00,2013-10-15 00:51:00,
2013-10-14 20:56:00,52.8,46.8,30.29,SW,219,0.0,2.0,80,0.00,,SCT045,0.01,VWS V14.00,2013-10-15 00:56:00,
2013-10-14 21:01:00,52.6,46.6,30.28,SW,219,0.0,0.0,80,0.00,,OVC049,0.01,VWS V14.00,2013-10-15 01:01:00,
2013-10-14 21:06:00,52.6,46.9,30.28,SW,219,0.0,0.0,81,0.00,,OVC049,0.01,VWS V14.00,2013-10-15 01:06:00,
2013-10-14 21:11:00,52.5,46.8,30.28,SW,219,1.0,3.0,81,0.00,,OVC049,0.01,VWS V14.00,2013-10-15 01:11:00,
2013-10-14 21:16:00,52.3,47.0,30.28,SW,219,0.0,3.0,82,0.00,,OVC049,0.01,VWS V14.00,2013-10-15 01:16:00,
2013-10-14 21:21:00,52.2,46.9,30.28,SW,219,1.0,3.0,82,0.00,,OVC049,0.01,VWS V14.00,2013-10-15 01:21:00,
2013-10-14 21:26:00,52.1,47.1,30.28,SW,219,1.0,3.0,83,0.00,,OVC049,0.01,VWS V14.00,2013-10-15 01:26:00,
2013-10-14 21:31:00,52.1,47.1,30.28,SW,219,0.0,1.0,83,0.00,,OVC049,0.01,VWS V14.00,2013-10-15 01:31:00,
2013-10-14 21:36:00,51.9,47.2,30.28,SW,219,0.0,2.0,84,0.00,,OVC049,0.01,VWS V14.00,2013-10-15 01:36:00,
2013-10-14 21:41:00,51.8,47.1,30.28,SW,219,0.0,3.0,84,0.00,,OVC049,0.01,VWS V14.00,2013-10-15 01:41:00,
2013-10-14 21:46:00,51.5,47.2,30.28,SW,219,0.0,3.0,85,0.00,,OVC049,0.01,VWS V14.00,2013-10-15 01:46:00,
2013-10-14 21:51:00,51.3,47.0,30.28,SW,219,0.0,3.0,85,0.00,,OVC049,0.01,VWS V14.00,2013-10-15 01:51:00,
2013-10-14 21:56:00,51.3,47.3,30.28,SW,219,0.0,3.0,86,0.00,,OVC049,0.01,VWS V14.00,2013-10-15 01:56:00,
2013-10-14 22:01:00,51.2,47.5,30.28,SW,219,0.0,0.0,87,0.00,,BKN049,0.01,VWS V14.00,2013-10-15 02:01:00,
2013-10-14 22:06:00,51.0,47.3,30.28,SW,219,0.0,0.0,87,0.00,,BKN049,0.01,VWS V14.00,2013-10-15 02:06:00,
2013-10-14 22:11:00,50.9,47.5,30.28,SW,219,0.0,0.0,88,0.00,,BKN049,0.01,VWS V14.00,2013-10-15 02:11:00,
2013-10-14 22:16:00,50.9,47.5,30.28,SW,219,0.0,0.0,88,0.00,,BKN049,0.01,VWS V14.00,2013-10-15 02:16:00,
2013-10-14 22:21:00,50.9,47.5,30.28,SW,219,0.0,1.0,88,0.00,,BKN049,0.01,VWS V14.00,2013-10-15 02:21:00,
2013-10-14 22:26:00,50.9,47.8,30.27,SW,219,0.0,1.0,89,0.00,,BKN049,0.01,VWS V14.00,2013-10-15 02:26:00,
2013-10-14 22:31:00,51.0,47.6,30.27,SW,219,0.0,0.0,88,0.00,,BKN049,0.01,VWS V14.00,2013-10-15 02:31:00,
2013-10-14 22:36:00,51.2,47.8,30.27,SW,219,0.0,2.0,88,0.00,,BKN049,0.01,VWS V14.00,2013-10-15 02:36:00,
2013-10-14 22:41:00,51.3,48.2,30.27,SW,219,2.0,3.0,89,0.00,,BKN049,0.01,VWS V14.00,2013-10-15 02:41:00,
2013-10-14 22:46:00,51.3,47.9,30.27,SW,219,0.0,3.0,88,0.00,,BKN049,0.01,VWS V14.00,2013-10-15 02:46:00,
2013-10-14 22:51:00,51.3,47.9,30.27,SW,219,1.0,3.0,88,0.00,,BKN049,0.01,VWS V14.00,2013-10-15 02:51:00,
2013-10-14 22:56:00,51.3,47.3,30.27,SW,219,0.0,3.0,86,0.00,,BKN049,0.01,VWS V14.00,2013-10-15 02:56:00,
2013-10-14 23:01:00,51.5,47.5,30.27,SW,219,0.0,0.0,86,0.00,,FEW049,0.01,VWS V14.00,2013-10-15 03:01:00,
2013-10-14 23:06:00,51.6,47.9,30.27,SW,219,0.0,0.0,87,0.00,,FEW049,0.01,VWS V14.00,2013-10-15 03:06:00,
2013-10-14 23:11:00,51.5,47.5,30.27,SW,219,0.0,0.0,86,0.00,,FEW049,0.01,VWS V14.00,2013-10-15 03:11:00,
2013-10-14 23:16:00,51.2,47.5,30.26,SW,219,0.0,0.0,87,0.00,,FEW049,0.01,VWS V14.00,2013-10-15 03:16:00,
2013-10-14 23:21:00,50.9,47.2,30.27,SW,219,0.0,0.0,87,0.00,,FEW049,0.01,VWS V14.00,2013-10-15 03:21:00,
2013-10-14 23:26:00,50.6,47.2,30.27,SW,219,0.0,0.0,88,0.00,,FEW049,0.01,VWS V14.00,2013-10-15 03:26:00,
2013-10-14 23:31:00,50.3,46.9,30.27,SW,219,0.0,0.0,88,0.00,,FEW049,0.01,VWS V14.00,2013-10-15 03:31:00,
2013-10-14 23:36:00,50.0,46.6,30.27,SW,219,0.0,0.0,88,0.00,,FEW049,0.01,VWS V14.00,2013-10-15 03:36:00,
2013-10-14 23:41:00,49.7,46.6,30.27,SW,219,0.0,0.0,89,0.00,,FEW049,0.01,VWS V14.00,2013-10-15 03:41:00,
2013-10-14 23:46:00,49.6,46.8,30.28,SW,219,0.0,0.0,90,0.00,,FEW049,0.01,VWS V14.00,2013-10-15 03:46:00,
2013-10-14 23:51:00,49.3,46.5,30.27,SW,219,0.0,0.0,90,0.00,,FEW049,0.01,VWS V14.00,2013-10-15 03:51:00,
2013-10-14 23:56:00,49.0,46.2,30.28,SW,219,0.0,0.0,90,0.00,,FEW049,0.01,VWS V14.00,2013-10-15 03:56:00,